Date,TemperatureHighF,TemperatureAvgF,TemperatureLowF,DewpointHighF,DewpointAvgF,DewpointLowF,HumidityHigh,HumidityAvg,HumidityLow,PressureMaxIn,PressureMinIn,WindSpeedMaxMPH,WindSpeedAvgMPH,GustSpeedMaxMPH,PrecipitationSumIn
2013-3-1,45,42,37,42,40,36,96,91,85,0.00,40.00,5,3,9,0.02
2013-3-2,46,42,37,43,39,35,97,90,77,0.00,40.00,6,3,10,0.01
2013-3-3,43,40,33,42,31,23,98,71,45,0.00,40.00,13,7,24,0.01
2013-3-4,48,37,28,29,26,23,87,64,36,0.00,40.00,7,4,9,0.00
2013-3-5,44,36,28,30,26,24,82,68,48,0.00,40.00,6,3,11,0.00
2013-3-6,50,40,36,41,36,30,96,84,69,0.00,40.00,15,4,28,0.02
2013-3-7,49,40,32,38,35,30,96,83,56,0.00,40.00,5,3,8,0.02
2013-3-8,54,38,31,32,29,27,92,73,40,0.00,40.00,6,4,12,0.00
2013-3-9,48,38,31,37,31,27,86,75,55,0.00,40.00,5,2,8,0.00
2013-3-10,50,38,30,39,32,28,95,81,46,0.00,40.00,8,3,14,0.00
2013-3-11,53,43,38,40,35,30,96,77,41,0.00,40.00,7,3,12,0.00
2013-3-12,46,40,36,42,37,31,96,87,77,0.00,40.00,6,3,11,0.01
2013-3-13,55,46,41,46,42,40,95,85,66,0.00,40.00,5,3,8,0.01
2013-3-14,54,47,40,46,41,37,92,79,59,0.00,40.00,4,2,7,0.00
2013-3-15,60,49,44,43,40,36,91,74,41,0.00,40.00,6,3,12,0.00
2013-3-16,52,43,40,41,38,36,94,83,57,0.00,40.00,7,3,14,0.00
2013-3-17,44,38,33,39,29,23,96,73,42,0.00,40.00,17,7,34,0.01
2013-3-18,45,37,33,34,31,26,96,80,49,0.00,40.00,7,3,13,0.01
2013-3-19,50,39,28,35,30,24,89,70,50,0.00,40.00,11,6,17,0.01
2013-3-20,50,43,38,43,39,34,95,86,71,0.00,40.00,10,4,26,0.02
2013-3-21,40,36,33,35,30,24,93,77,58,0.00,40.00,10,4,26,0.01
2013-3-22,40,35,32,31,28,23,93,75,52,0.00,40.00,13,5,22,0.00
2013-3-23,44,36,30,31,28,21,93,73,40,0.00,40.00,7,4,11,0.00
2013-3-24,47,35,25,26,23,19,86,64,31,0.00,40.00,9,5,14,0.00
2013-3-25,52,38,28,34,26,23,81,64,32,0.00,40.00,7,4,12,0.00
2013-3-26,60,44,31,39,32,28,87,64,33,0.00,40.00,5,3,10,0.00
2013-3-27,64,48,40,41,36,33,81,64,37,0.00,40.00,5,3,9,0.00
2013-3-28,59,49,42,46,40,37,87,73,52,0.00,40.00,5,3,7,0.00
2013-3-29,61,50,43,46,42,40,88,75,51,0.00,40.00,6,2,13,0.00
2013-3-30,63,50,42,44,38,-100,89,69,37,0.00,40.00,8,4,11,0.00
2013-3-31,68,51,35,40,36,29,90,61,22,0.00,40.00,5,3,7,0.00